Time;durP1;ratioP1;P1;durP2;ratioP2;P2;SDS_P1;SDS_P2;PMS_P1;PMS_P2;Temp;Humidity;BMP_temperature;BMP_pressure;BME280_temperature;BME280_humidity;BME280_pressure;Samples;Min_cycle;Max_cycle;Signal;HPM_P1;HPM_P2
2023/04/28 00:00:49;;;;;;;3.95;1.50;;;13.20;99.90;;;;;;5028945;28;20022;-70
2023/04/28 00:03:16;;;;;;;4.40;1.90;;;13.30;99.90;;;;;;5021039;28;20042;-70
2023/04/28 00:05:41;;;;;;;3.92;2.08;;;13.30;99.90;;;;;;5011491;28;20030;-70
2023/04/28 00:08:07;;;;;;;4.13;1.90;;;13.40;99.90;;;;;;5020537;28;20026;-70
2023/04/28 00:10:33;;;;;;;3.22;1.73;;;13.30;99.90;;;;;;5027910;28;20038;-70
2023/04/28 00:13:00;;;;;;;5.70;1.52;;;13.30;99.90;;;;;;5003644;28;20060;-70
2023/04/28 00:15:25;;;;;;;3.88;1.67;;;13.40;99.90;;;;;;5026123;28;20393;-70
2023/04/28 00:17:52;;;;;;;3.72;2.10;;;13.40;99.90;;;;;;5004806;28;20028;-71
2023/04/28 00:20:17;;;;;;;3.75;1.88;;;13.50;99.90;;;;;;5025277;28;20030;-71
2023/04/28 00:22:43;;;;;;;4.20;1.70;;;13.70;99.90;;;;;;5023278;28;20060;-71
2023/04/28 00:25:09;;;;;;;3.55;1.58;;;13.80;99.90;;;;;;5006581;28;20033;-71
2023/04/28 00:27:35;;;;;;;1.98;1.35;;;13.90;99.90;;;;;;5023098;28;20037;-71
2023/04/28 00:30:02;;;;;;;6.22;2.00;;;13.90;99.90;;;;;;5023857;28;20033;-71
2023/04/28 00:32:28;;;;;;;3.63;1.77;;;13.80;99.90;;;;;;4998316;28;20123;-71
2023/04/28 00:34:54;;;;;;;9.98;1.88;;;13.80;99.90;;;;;;5023669;28;20041;-71
2023/04/28 00:37:19;;;;;;;3.47;1.67;;;13.70;99.90;;;;;;5022910;28;20400;-70
2023/04/28 00:39:48;;;;;;;3.05;1.80;;;13.70;99.90;;;;;;5023834;28;20519;-70
2023/04/28 00:42:14;;;;;;;3.90;2.25;;;13.60;99.90;;;;;;5023135;28;20028;-70
2023/04/28 00:44:40;;;;;;;3.75;1.60;;;13.50;99.90;;;;;;5006341;28;20030;-72
2023/04/28 00:47:08;;;;;;;4.57;1.83;;;13.60;99.90;;;;;;5004891;28;20017;-72
2023/04/28 00:49:35;;;;;;;3.08;1.88;;;13.60;99.90;;;;;;5006171;28;20131;-72
2023/04/28 00:52:05;;;;;;;5.90;1.80;;;13.60;99.90;;;;;;5005316;28;20032;-71
2023/04/28 00:54:34;;;;;;;4.97;2.00;;;13.60;99.90;;;;;;5023636;28;20129;-72
2023/04/28 00:57:01;;;;;;;7.10;2.47;;;13.60;99.90;;;;;;4988796;28;20030;-72
2023/04/28 00:59:29;;;;;;;7.82;1.90;;;13.60;99.90;;;;;;5023361;28;20111;-72
2023/04/28 01:01:55;;;;;;;8.75;2.20;;;13.60;99.90;;;;;;5004910;28;20044;-72
2023/04/28 01:04:22;;;;;;;3.25;1.50;;;13.50;99.90;;;;;;5017179;28;20025;-72
2023/04/28 01:06:51;;;;;;;3.30;1.60;;;13.40;99.90;;;;;;5002761;28;20032;-72
2023/04/28 01:09:17;;;;;;;4.18;1.58;;;13.40;99.90;;;;;;4996695;28;20037;-72
2023/04/28 01:11:42;;;;;;;5.63;2.42;;;13.40;99.90;;;;;;5000190;28;20034;-72
2023/04/28 01:14:08;;;;;;;3.90;1.65;;;13.40;99.90;;;;;;5022838;28;20025;-72
2023/04/28 01:16:36;;;;;;;4.97;2.20;;;13.20;99.90;;;;;;5016186;28;20034;-71
2023/04/28 01:19:03;;;;;;;9.48;1.70;;;13.30;99.90;;;;;;5004590;28;20032;-72
2023/04/28 01:21:32;;;;;;;7.00;2.15;;;13.10;99.90;;;;;;5003444;28;20034;-72
2023/04/28 01:23:59;;;;;;;4.30;2.47;;;13.10;99.90;;;;;;5020063;28;20053;-71
2023/04/28 01:26:25;;;;;;;4.20;2.45;;;12.90;99.90;;;;;;5023935;28;20034;-71
2023/04/28 01:28:52;;;;;;;3.83;2.13;;;12.70;99.90;;;;;;5002497;28;20038;-71
2023/04/28 01:31:17;;;;;;;4.97;2.33;;;12.60;99.90;;;;;;5025996;28;20149;-71
2023/04/28 01:33:43;;;;;;;3.58;2.22;;;12.60;99.90;;;;;;5019384;28;20046;-71
2023/04/28 01:36:09;;;;;;;7.50;1.85;;;12.70;99.90;;;;;;4994090;28;20030;-71
2023/04/28 01:38:35;;;;;;;12.57;2.05;;;12.60;99.90;;;;;;5019154;28;20162;-72
2023/04/28 01:41:01;;;;;;;7.00;1.80;;;12.50;99.90;;;;;;5024381;28;20025;-70
2023/04/28 01:43:28;;;;;;;3.25;1.90;;;12.60;99.90;;;;;;5019271;28;20084;-70
2023/04/28 01:45:53;;;;;;;5.75;2.03;;;12.60;99.90;;;;;;4993040;28;20505;-70
2023/04/28 01:48:20;;;;;;;4.38;2.08;;;12.70;99.90;;;;;;5019085;28;20132;-71
2023/04/28 01:50:46;;;;;;;5.03;2.13;;;12.70;99.90;;;;;;5009589;28;20112;-71
2023/04/28 01:56:37;;;;;;;5.70;2.63;;;12.70;99.90;;;;;;5017812;28;20049;-71
2023/04/28 01:59:03;;;;;;;5.40;2.22;;;12.70;99.90;;;;;;5025199;28;20026;-72
2023/04/28 02:01:29;;;;;;;4.47;2.28;;;12.70;99.90;;;;;;5017179;28;20037;-71
2023/04/28 02:03:55;;;;;;;4.07;2.03;;;12.70;99.90;;;;;;5020319;28;20044;-71
2023/04/28 02:06:20;;;;;;;4.05;2.30;;;12.70;99.90;;;;;;5024935;28;20033;-71
2023/04/28 02:08:46;;;;;;;3.67;2.05;;;12.70;99.90;;;;;;5019385;28;20025;-71
2023/04/28 02:11:12;;;;;;;7.35;3.08;;;12.80;99.90;;;;;;5026338;28;20034;-71
2023/04/28 02:13:38;;;;;;;6.95;2.15;;;12.90;99.90;;;;;;5019067;28;20121;-71
2023/04/28 02:16:04;;;;;;;5.55;2.13;;;12.90;99.90;;;;;;5016828;28;20517;-71
2023/04/28 02:18:30;;;;;;;5.32;2.33;;;12.90;99.90;;;;;;5018846;28;20405;-71
2023/04/28 02:20:55;;;;;;;5.15;2.70;;;12.90;99.90;;;;;;5021094;28;20030;-71
2023/04/28 02:23:21;;;;;;;4.57;2.42;;;13.00;99.90;;;;;;5001203;28;20057;-71
2023/04/28 02:25:47;;;;;;;5.68;2.55;;;13.00;99.90;;;;;;5026733;28;20065;-71
2023/04/28 02:28:13;;;;;;;6.78;2.60;;;12.90;99.90;;;;;;5018200;28;20018;-71
2023/04/28 02:30:38;;;;;;;5.43;2.50;;;12.90;99.90;;;;;;5008648;28;20064;-71
2023/04/28 02:33:04;;;;;;;4.65;2.22;;;12.80;99.90;;;;;;4977830;28;20134;-70
2023/04/28 02:35:30;;;;;;;7.57;2.83;;;12.70;99.90;;;;;;5025286;28;20096;-70
2023/04/28 02:37:56;;;;;;;7.38;2.75;;;12.70;99.90;;;;;;5004968;28;20048;-70
2023/04/28 02:40:21;;;;;;;7.07;3.35;;;12.80;99.90;;;;;;5027768;28;20036;-71
2023/04/28 02:42:47;;;;;;;7.40;2.97;;;12.80;99.90;;;;;;4999969;28;20045;-71
2023/04/28 02:45:13;;;;;;;6.57;2.97;;;12.90;99.90;;;;;;5026532;28;20025;-71
2023/04/28 02:47:39;;;;;;;12.02;4.93;;;12.90;99.90;;;;;;5025038;28;20091;-70
2023/04/28 02:50:05;;;;;;;8.43;3.25;;;12.80;99.90;;;;;;5025753;28;20527;-70
2023/04/28 02:52:31;;;;;;;7.13;2.67;;;12.80;99.90;;;;;;5025065;28;20025;-71
2023/04/28 02:54:57;;;;;;;9.40;4.13;;;12.80;99.90;;;;;;5025443;28;20036;-70
2023/04/28 02:57:23;;;;;;;7.78;3.47;;;13.00;99.90;;;;;;4999696;28;20053;-71
2023/04/28 02:59:49;;;;;;;6.55;3.25;;;13.00;99.90;;;;;;5025388;28;20455;-71
2023/04/28 03:02:15;;;;;;;13.50;3.10;;;12.90;99.90;;;;;;5032238;23;20125;-74
2023/04/28 03:04:41;;;;;;;10.20;3.17;;;12.80;99.90;;;;;;5026721;28;20021;-75
2023/04/28 03:07:07;;;;;;;8.93;3.63;;;12.80;99.90;;;;;;5016083;28;20079;-75
2023/04/28 03:09:33;;;;;;;7.45;3.58;;;12.80;99.90;;;;;;5023792;28;20040;-75
2023/04/28 03:11:59;;;;;;;9.75;3.13;;;12.70;99.90;;;;;;5027122;28;20022;-75
2023/04/28 03:14:25;;;;;;;6.07;3.47;;;12.60;99.90;;;;;;5025181;28;20029;-75
2023/04/28 03:16:51;;;;;;;9.05;3.13;;;12.60;99.90;;;;;;4995126;28;20034;-75
2023/04/28 03:19:17;;;;;;;5.05;2.97;;;12.70;99.90;;;;;;5024763;28;20033;-76
2023/04/28 03:21:42;;;;;;;4.90;2.60;;;12.70;99.90;;;;;;5027259;28;20030;-75
2023/04/28 03:24:08;;;;;;;4.75;2.90;;;12.70;99.90;;;;;;5021159;28;20041;-75
2023/04/28 03:26:34;;;;;;;8.95;4.03;;;12.80;99.90;;;;;;5012407;28;20108;-76
2023/04/28 03:29:00;;;;;;;5.53;3.03;;;12.70;99.90;;;;;;5023440;28;20436;-75
2023/04/28 03:31:25;;;;;;;7.15;3.08;;;12.70;99.90;;;;;;4995406;28;20022;-74
2023/04/28 03:33:51;;;;;;;9.60;3.95;;;12.80;99.90;;;;;;5022289;28;20034;-76
2023/04/28 03:36:17;;;;;;;5.43;2.38;;;12.70;99.90;;;;;;5030432;28;20037;-77
2023/04/28 03:38:43;;;;;;;9.00;3.65;;;12.70;99.90;;;;;;5021246;28;20608;-77
2023/04/28 03:41:09;;;;;;;5.88;3.08;;;12.40;99.90;;;;;;5031394;28;20037;-74
2023/04/28 03:43:36;;;;;;;8.90;3.38;;;12.30;99.90;;;;;;5000317;28;20034;-76
2023/04/28 03:46:03;;;;;;;5.50;3.45;;;12.30;99.90;;;;;;5031287;28;20108;-76
2023/04/28 03:48:29;;;;;;;7.45;3.33;;;12.30;99.90;;;;;;5002357;28;20211;-76
2023/04/28 03:50:55;;;;;;;7.70;3.75;;;12.20;99.90;;;;;;5030786;28;20486;-76
2023/04/28 03:53:20;;;;;;;5.75;3.03;;;12.20;99.90;;;;;;5021331;28;20141;-76
2023/04/28 03:55:47;;;;;;;8.43;3.17;;;12.20;99.90;;;;;;5011761;28;20056;-75
2023/04/28 03:58:12;;;;;;;5.05;3.10;;;12.00;99.90;;;;;;5022073;28;20033;-76
2023/04/28 04:00:38;;;;;;;8.15;3.67;;;12.00;99.90;;;;;;5010725;28;20029;-76
2023/04/28 04:03:04;;;;;;;8.00;3.50;;;11.70;99.90;;;;;;5018056;28;20036;-76
2023/04/28 04:05:29;;;;;;;5.10;2.90;;;11.70;99.90;;;;;;5018009;28;20656;-76
2023/04/28 04:07:55;;;;;;;7.53;4.05;;;11.60;99.90;;;;;;4981381;28;20044;-76
2023/04/28 04:10:21;;;;;;;7.53;4.03;;;11.60;99.90;;;;;;5025736;28;20113;-76
2023/04/28 04:12:47;;;;;;;7.78;3.60;;;11.70;99.90;;;;;;5025729;28;20412;-76
2023/04/28 04:15:12;;;;;;;6.50;3.10;;;11.80;99.90;;;;;;5019418;28;20041;-75
2023/04/28 04:17:38;;;;;;;9.57;2.90;;;11.80;99.90;;;;;;5018969;28;20093;-75
2023/04/28 04:20:05;;;;;;;6.10;3.25;;;11.90;99.90;;;;;;5006215;28;20492;-76
2023/04/28 04:22:31;;;;;;;7.18;3.35;;;12.00;99.90;;;;;;4998714;28;20045;-76
2023/04/28 04:24:57;;;;;;;5.10;3.08;;;11.90;99.90;;;;;;5018910;28;20042;-76
2023/04/28 04:27:23;;;;;;;6.03;3.38;;;11.90;99.90;;;;;;5016921;28;20017;-75
2023/04/28 04:29:48;;;;;;;7.18;3.40;;;11.90;99.90;;;;;;5014065;28;20034;-76
2023/04/28 04:32:14;;;;;;;5.47;3.40;;;11.90;99.90;;;;;;5011340;28;20034;-75
2023/04/28 04:34:40;;;;;;;3.83;2.40;;;11.90;99.90;;;;;;5010873;28;20393;-75
2023/04/28 04:37:06;;;;;;;9.05;3.88;;;12.10;99.90;;;;;;5012513;28;20033;-76
2023/04/28 04:39:32;;;;;;;4.53;2.72;;;12.10;99.90;;;;;;5012009;28;20087;-76
2023/04/28 04:41:57;;;;;;;8.50;3.25;;;12.10;99.90;;;;;;5013351;28;20037;-76
2023/04/28 04:44:23;;;;;;;8.23;2.95;;;12.10;99.90;;;;;;5023437;28;20559;-75
2023/04/28 04:46:49;;;;;;;19.10;7.57;;;12.00;99.90;;;;;;5004723;28;20034;-76
2023/04/28 04:49:14;;;;;;;6.60;3.25;;;12.00;99.90;;;;;;5023609;28;20041;-75
2023/04/28 04:51:40;;;;;;;5.00;2.47;;;12.00;99.90;;;;;;5025541;28;20026;-76
2023/04/28 04:54:06;;;;;;;7.32;2.55;;;12.00;99.90;;;;;;5022886;28;20428;-76
2023/04/28 04:56:32;;;;;;;4.85;2.72;;;11.90;99.90;;;;;;5026983;28;20381;-75
2023/04/28 04:58:57;;;;;;;6.68;2.78;;;11.80;99.90;;;;;;5021859;28;20499;-75
2023/04/28 05:01:23;;;;;;;3.75;2.20;;;11.70;99.90;;;;;;5026769;28;20057;-74
2023/04/28 05:03:49;;;;;;;5.22;2.30;;;11.80;99.90;;;;;;5016232;28;20094;-76
2023/04/28 05:06:15;;;;;;;4.72;1.92;;;11.80;99.90;;;;;;5009981;28;20025;-77
2023/04/28 05:08:41;;;;;;;6.18;2.53;;;11.80;99.90;;;;;;4991889;28;20022;-78
2023/04/28 05:11:06;;;;;;;5.18;2.20;;;11.80;99.90;;;;;;5009916;28;20032;-73
2023/04/28 05:13:32;;;;;;;4.28;2.35;;;11.80;99.90;;;;;;5006862;28;20561;-74
2023/04/28 05:15:58;;;;;;;4.88;2.40;;;11.70;99.90;;;;;;5017191;28;20041;-75
2023/04/28 05:18:23;;;;;;;5.22;2.15;;;11.60;99.90;;;;;;5010078;28;20080;-74
2023/04/28 05:20:49;;;;;;;7.68;2.63;;;11.60;99.90;;;;;;5012990;28;20130;-75
2023/04/28 05:23:15;;;;;;;4.82;2.45;;;11.40;99.90;;;;;;5015866;28;20120;-75
2023/04/28 05:25:41;;;;;;;7.53;2.83;;;11.40;99.90;;;;;;5006149;28;20475;-75
2023/04/28 05:28:10;;;;;;;6.00;2.95;;;11.40;99.90;;;;;;4984666;28;20100;-75
2023/04/28 05:30:36;;;;;;;13.63;3.15;;;11.40;99.90;;;;;;5012721;28;20026;-77
2023/04/28 05:33:02;;;;;;;5.30;2.85;;;11.40;99.90;;;;;;4999131;28;20543;-76
2023/04/28 05:35:29;;;;;;;4.47;2.55;;;11.40;99.90;;;;;;4998413;28;20037;-76
2023/04/28 05:37:55;;;;;;;4.72;2.72;;;11.40;99.90;;;;;;4980481;28;20100;-76
2023/04/28 05:40:21;;;;;;;5.38;2.60;;;11.50;99.90;;;;;;5014457;28;20030;-76
2023/04/28 05:42:47;;;;;;;5.65;3.10;;;11.40;99.90;;;;;;4997056;28;20080;-75
2023/04/28 05:45:13;;;;;;;6.25;2.90;;;11.40;99.90;;;;;;4998675;28;20050;-77
2023/04/28 05:47:39;;;;;;;5.13;2.72;;;11.30;99.90;;;;;;4999436;28;20036;-74
2023/04/28 05:50:06;;;;;;;6.45;3.00;;;11.40;99.90;;;;;;4999233;28;20022;-74
2023/04/28 05:52:32;;;;;;;4.30;2.40;;;11.30;99.90;;;;;;4995864;28;20026;-75
2023/04/28 05:54:58;;;;;;;6.15;3.05;;;11.20;99.90;;;;;;5000378;28;20041;-74
2023/04/28 05:57:23;;;;;;;4.65;2.78;;;11.30;99.90;;;;;;4996994;28;20397;-74
2023/04/28 05:59:49;;;;;;;8.13;2.88;;;11.30;99.90;;;;;;4998565;28;20042;-75
2023/04/28 06:02:15;;;;;;;6.25;3.30;;;11.30;99.90;;;;;;4993916;28;20037;-77
2023/04/28 06:04:42;;;;;;;5.28;2.85;;;11.30;99.90;;;;;;4986105;28;20048;-73
2023/04/28 06:07:09;;;;;;;10.88;4.28;;;11.30;99.90;;;;;;4996721;28;20374;-73
2023/04/28 06:09:35;;;;;;;6.60;3.50;;;11.30;99.90;;;;;;4995422;28;20036;-75
2023/04/28 06:12:02;;;;;;;5.47;3.17;;;11.40;99.90;;;;;;5002295;28;20026;-75
2023/04/28 06:14:28;;;;;;;7.93;3.53;;;11.40;99.90;;;;;;5005222;28;20030;-74
2023/04/28 06:16:54;;;;;;;13.35;3.47;;;11.40;99.90;;;;;;4998403;28;20120;-71
2023/04/28 06:19:20;;;;;;;7.70;3.53;;;11.40;99.90;;;;;;4992858;28;20555;-71
2023/04/28 06:21:45;;;;;;;6.35;3.20;;;11.40;99.90;;;;;;4994624;28;20038;-71
2023/04/28 06:24:11;;;;;;;9.70;3.35;;;11.50;99.90;;;;;;5006734;28;20030;-76
2023/04/28 06:26:37;;;;;;;6.28;2.78;;;11.40;99.90;;;;;;4998047;28;20165;-73
2023/04/28 06:29:03;;;;;;;7.53;3.78;;;11.40;99.90;;;;;;4996540;28;20056;-73
2023/04/28 06:31:29;;;;;;;5.82;3.42;;;11.30;99.90;;;;;;4994424;28;20561;-74
2023/04/28 06:33:55;;;;;;;15.52;3.92;;;11.30;99.90;;;;;;5002441;28;20037;-74
2023/04/28 06:36:20;;;;;;;10.15;3.83;;;11.20;99.90;;;;;;4999463;28;20092;-74
2023/04/28 06:38:46;;;;;;;5.05;3.10;;;11.30;99.90;;;;;;5016861;28;20158;-74
2023/04/28 06:41:12;;;;;;;24.15;4.50;;;11.20;99.90;;;;;;5014846;28;20026;-73
2023/04/28 06:43:38;;;;;;;8.25;3.22;;;11.30;99.90;;;;;;4986485;28;20034;-74
2023/04/28 06:46:03;;;;;;;9.25;3.30;;;11.30;99.90;;;;;;5007103;28;20082;-73
2023/04/28 06:48:29;;;;;;;10.43;3.80;;;11.30;99.90;;;;;;5000865;28;20038;-72
2023/04/28 06:50:55;;;;;;;10.80;3.80;;;11.30;99.90;;;;;;5009317;28;20067;-71
2023/04/28 06:53:21;;;;;;;8.25;4.95;;;11.30;99.90;;;;;;4989371;28;20108;-72
2023/04/28 06:55:47;;;;;;;8.88;4.80;;;11.40;99.90;;;;;;4991360;28;20401;-73
2023/04/28 06:58:12;;;;;;;5.70;2.53;;;11.30;99.90;;;;;;5013293;28;20037;-72
2023/04/28 07:00:38;;;;;;;7.82;4.15;;;11.30;99.90;;;;;;4997310;28;20026;-72
2023/04/28 07:03:04;;;;;;;11.73;4.72;;;11.30;99.90;;;;;;4994839;28;20484;-72
2023/04/28 07:05:30;;;;;;;9.73;4.32;;;11.30;99.90;;;;;;4996846;28;20044;-72
2023/04/28 07:07:55;;;;;;;6.15;4.03;;;11.30;99.90;;;;;;5011438;28;20425;-73
2023/04/28 07:10:21;;;;;;;7.53;4.10;;;11.40;99.90;;;;;;4994740;28;20038;-74
2023/04/28 07:12:49;;;;;;;16.65;7.43;;;11.40;99.90;;;;;;5010008;28;20038;-74
2023/04/28 07:15:15;;;;;;;12.57;4.18;;;11.40;99.90;;;;;;5014071;28;20409;-73
2023/04/28 07:17:41;;;;;;;8.85;5.07;;;11.50;99.90;;;;;;5010041;28;20040;-73
2023/04/28 07:20:08;;;;;;;12.20;5.00;;;11.60;99.90;;;;;;4998579;28;20040;-72
2023/04/28 07:22:33;;;;;;;6.93;3.67;;;11.60;99.90;;;;;;5010759;28;20080;-74
2023/04/28 07:24:59;;;;;;;8.05;3.20;;;11.60;99.90;;;;;;5007622;28;20087;-71
2023/04/28 07:27:25;;;;;;;13.73;4.15;;;11.60;99.90;;;;;;4998863;28;20057;-73
2023/04/28 07:29:51;;;;;;;7.50;4.00;;;11.80;99.90;;;;;;4999382;28;20081;-72
2023/04/28 07:32:16;;;;;;;6.32;4.32;;;11.90;99.90;;;;;;4996336;28;20030;-72
2023/04/28 07:34:42;;;;;;;8.27;4.20;;;11.90;99.90;;;;;;5000445;28;20112;-72
2023/04/28 07:37:08;;;;;;;8.18;4.30;;;12.10;99.90;;;;;;4998501;28;20076;-72
2023/04/28 07:39:34;;;;;;;7.95;4.78;;;12.10;99.90;;;;;;5002496;28;20057;-72
2023/04/28 07:42:01;;;;;;;14.23;4.20;;;12.20;99.90;;;;;;4997836;28;20101;-72
2023/04/28 07:44:28;;;;;;;10.68;4.07;;;12.20;99.90;;;;;;5003409;28;20034;-71
2023/04/28 07:46:55;;;;;;;9.15;4.32;;;12.20;99.90;;;;;;4996470;28;20410;-72
2023/04/28 07:49:21;;;;;;;5.88;3.58;;;12.20;99.90;;;;;;5004339;28;20026;-72
2023/04/28 07:51:46;;;;;;;8.35;4.68;;;12.20;99.90;;;;;;4992799;28;20115;-72
2023/04/28 07:54:12;;;;;;;11.07;4.53;;;12.20;99.90;;;;;;5005069;28;20023;-72
2023/04/28 07:56:38;;;;;;;16.55;4.80;;;12.30;99.90;;;;;;4995987;28;20098;-72
2023/04/28 07:59:04;;;;;;;6.93;3.90;;;12.40;99.90;;;;;;5004851;28;20068;-72
2023/04/28 08:01:30;;;;;;;24.42;5.47;;;12.40;99.90;;;;;;4996993;28;20133;-70
2023/04/28 08:03:55;;;;;;;8.60;4.75;;;12.50;99.90;;;;;;5003486;28;20038;-73
2023/04/28 08:06:21;;;;;;;8.27;4.35;;;12.60;99.90;;;;;;4998040;28;20034;-71
2023/04/28 08:08:48;;;;;;;11.80;3.97;;;12.60;99.90;;;;;;5001828;28;20023;-71
2023/04/28 08:11:13;;;;;;;5.00;2.72;;;12.60;99.90;;;;;;4998854;28;20022;-72
2023/04/28 08:13:39;;;;;;;10.15;3.75;;;12.60;99.90;;;;;;5000757;28;20085;-72
2023/04/28 08:16:05;;;;;;;7.10;4.47;;;12.70;99.90;;;;;;5000186;28;20036;-72
2023/04/28 08:18:31;;;;;;;8.93;4.28;;;12.80;99.90;;;;;;5014979;28;20030;-72
2023/04/28 08:20:57;;;;;;;6.47;3.40;;;12.90;99.90;;;;;;5000083;28;20045;-71
2023/04/28 08:23:26;;;;;;;6.45;3.90;;;12.90;99.90;;;;;;4999316;28;20030;-72
2023/04/28 08:25:53;;;;;;;6.78;3.28;;;13.10;99.90;;;;;;4998840;28;20407;-72
2023/04/28 08:28:18;;;;;;;11.85;3.85;;;13.10;99.90;;;;;;4999832;28;20030;-72
2023/04/28 08:30:44;;;;;;;8.48;3.88;;;13.10;99.90;;;;;;4998103;28;20137;-72
2023/04/28 08:33:10;;;;;;;8.90;4.05;;;13.10;99.90;;;;;;5000263;28;20018;-72
2023/04/28 08:35:36;;;;;;;7.78;4.10;;;13.30;99.90;;;;;;4998473;28;20040;-72
2023/04/28 08:38:01;;;;;;;9.55;3.78;;;13.30;99.90;;;;;;4999488;28;20099;-72
2023/04/28 08:40:30;;;;;;;8.52;3.67;;;13.30;99.90;;;;;;4999693;28;20374;-72
2023/04/28 08:42:56;;;;;;;7.53;4.38;;;13.30;99.90;;;;;;4998843;28;20053;-72
2023/04/28 08:45:24;;;;;;;6.95;3.35;;;13.40;99.90;;;;;;5014836;28;20498;-72
2023/04/28 08:47:51;;;;;;;7.38;3.45;;;13.40;99.90;;;;;;4995025;28;20045;-72
2023/04/28 08:50:24;;;;;;;7.32;3.67;;;13.50;99.90;;;;;;5014767;28;20088;-72
2023/04/28 08:52:52;;;;;;;5.97;3.92;;;13.60;99.90;;;;;;4997249;28;20704;-72
2023/04/28 08:55:18;;;;;;;5.63;3.13;;;13.60;99.90;;;;;;5014732;28;20038;-73
2023/04/28 08:57:50;;;;;;;6.47;3.38;;;13.70;99.90;;;;;;4997300;28;20405;-73
2023/04/28 09:00:16;;;;;;;6.20;3.58;;;14.10;99.90;;;;;;5015024;28;20030;-72
2023/04/28 09:02:42;;;;;;;6.35;3.25;;;14.30;99.90;;;;;;4996945;28;20045;-72
2023/04/28 09:05:10;;;;;;;4.70;2.97;;;14.30;99.90;;;;;;4998981;28;20397;-72
2023/04/28 09:07:36;;;;;;;7.13;3.00;;;14.50;99.90;;;;;;4997176;28;20038;-72
2023/04/28 09:10:22;;;;;;;5.30;2.85;;;14.40;99.90;;;;;;4999275;28;20018;-73
2023/04/28 09:12:53;;;;;;;5.78;3.58;;;14.20;99.90;;;;;;4997107;28;20091;-72
2023/04/28 09:15:33;;;;;;;7.60;3.88;;;14.00;99.90;;;;;;5014146;28;20037;-72
2023/04/28 09:18:02;;;;;;;5.78;3.15;;;14.00;99.90;;;;;;4997513;28;20117;-75
2023/04/28 09:20:30;;;;;;;5.70;3.08;;;13.90;99.90;;;;;;4995734;28;20041;-72
2023/04/28 09:23:19;;;;;;;5.13;3.35;;;13.90;99.90;;;;;;4980558;28;20029;-70
2023/04/28 09:26:05;;;;;;;7.63;3.38;;;13.80;99.90;;;;;;4997059;28;20043;-70
2023/04/28 09:28:34;;;;;;;7.32;2.97;;;13.90;99.90;;;;;;5012607;28;20027;-72
2023/04/28 09:31:01;;;;;;;6.13;3.42;;;13.80;99.90;;;;;;5014579;28;20031;-72
2023/04/28 09:33:27;;;;;;;5.78;3.70;;;13.90;99.90;;;;;;4998022;28;20048;-72
2023/04/28 09:35:53;;;;;;;5.93;3.45;;;13.90;99.90;;;;;;4998166;28;20474;-67
2023/04/28 09:38:21;;;;;;;5.38;3.15;;;14.00;99.90;;;;;;4998008;28;20026;-71
2023/04/28 09:41:01;;;;;;;5.30;2.58;;;14.00;99.90;;;;;;4996987;28;20022;-71
2023/04/28 09:43:33;;;;;;;3.88;2.28;;;14.00;99.90;;;;;;5012666;28;20370;-71
2023/04/28 09:46:03;;;;;;;7.25;3.53;;;14.30;99.90;;;;;;5011946;28;20544;-69
2023/04/28 09:48:37;;;;;;;5.18;3.13;;;14.40;99.90;;;;;;5012811;28;20468;-72
2023/04/28 09:51:06;;;;;;;5.28;3.25;;;14.30;99.90;;;;;;4996594;28;20486;-72
2023/04/28 09:53:33;;;;;;;5.18;2.45;;;14.40;99.90;;;;;;5007123;28;20022;-72
2023/04/28 09:56:02;;;;;;;5.97;2.97;;;14.30;99.90;;;;;;5010225;28;20473;-71
2023/04/28 09:58:31;;;;;;;5.47;2.25;;;14.20;99.90;;;;;;4993025;28;20069;-72
2023/04/28 10:00:59;;;;;;;5.70;3.30;;;14.30;99.90;;;;;;4987797;28;20030;-70
2023/04/28 10:03:28;;;;;;;4.28;2.60;;;14.40;99.90;;;;;;4976701;28;20482;-69
2023/04/28 10:05:57;;;;;;;5.68;3.13;;;14.40;99.90;;;;;;5013052;28;20029;-72
2023/04/28 10:08:24;;;;;;;5.30;3.22;;;14.60;99.90;;;;;;4999411;28;20134;-71
2023/04/28 10:10:53;;;;;;;3.58;2.50;;;14.70;99.90;;;;;;4979415;28;20034;-71
2023/04/28 10:13:22;;;;;;;6.93;2.65;;;14.60;99.90;;;;;;4995536;28;20144;-71
2023/04/28 10:15:50;;;;;;;8.00;3.17;;;14.70;99.90;;;;;;4990940;28;20077;-72
2023/04/28 10:18:16;;;;;;;5.50;2.60;;;14.60;99.90;;;;;;5006497;28;20073;-72
2023/04/28 10:20:51;;;;;;;5.03;2.70;;;14.70;99.90;;;;;;4995732;28;20116;-73
2023/04/28 10:23:59;;;;;;;3.03;2.42;;;14.80;99.90;;;;;;5013833;28;20056;-72
2023/04/28 10:27:04;;;;;;;4.43;2.42;;;14.80;99.90;;;;;;4992392;28;20487;-71
2023/04/28 10:29:32;;;;;;;3.80;2.45;;;14.80;99.90;;;;;;4959867;28;20474;-71
2023/04/28 10:32:17;;;;;;;3.75;2.13;;;14.80;99.90;;;;;;4994492;28;20478;-69
2023/04/28 10:34:44;;;;;;;4.80;2.67;;;14.80;99.90;;;;;;4990289;28;20041;-69
2023/04/28 10:37:10;;;;;;;3.33;2.35;;;14.90;99.90;;;;;;4999380;28;20030;-72
2023/04/28 10:39:36;;;;;;;3.63;2.17;;;14.80;99.90;;;;;;4999492;28;20104;-69
2023/04/28 10:42:02;;;;;;;5.10;2.38;;;14.80;99.90;;;;;;5009777;28;20486;-68
2023/04/28 10:44:27;;;;;;;5.28;3.20;;;14.80;99.90;;;;;;5000673;28;20039;-69
2023/04/28 10:47:08;;;;;;;4.93;3.38;;;14.70;99.90;;;;;;4993363;28;20177;-72
2023/04/28 10:50:00;;;;;;;4.65;2.88;;;14.80;99.90;;;;;;5014325;28;20070;-73
2023/04/28 10:52:38;;;;;;;5.00;2.33;;;14.80;99.90;;;;;;4992736;28;20386;-73
2023/04/28 10:55:38;;;;;;;3.85;2.90;;;14.80;99.90;;;;;;4997801;28;20442;-68
2023/04/28 10:58:19;;;;;;;6.45;3.22;;;14.70;99.90;;;;;;4998849;28;20034;-72
2023/04/28 11:00:46;;;;;;;6.43;3.37;;;14.70;99.90;;;;;;4999740;28;20048;-71
2023/04/28 11:03:47;;;;;;;4.57;2.70;;;14.70;99.90;;;;;;5001939;28;20462;-71
2023/04/28 11:06:27;;;;;;;9.13;3.42;;;14.80;99.90;;;;;;4999578;28;20034;-73
2023/04/28 11:08:56;;;;;;;5.57;3.10;;;14.60;99.90;;;;;;5019192;28;20080;-70
2023/04/28 11:11:30;;;;;;;5.53;3.38;;;14.70;99.90;;;;;;4979705;28;20782;-71
2023/04/28 11:14:19;;;;;;;7.95;3.45;;;14.90;99.90;;;;;;4996603;28;20117;-72
2023/04/28 11:16:53;;;;;;;5.50;3.15;;;14.80;99.90;;;;;;4996626;28;20030;-71
2023/04/28 11:19:21;;;;;;;7.55;3.90;;;14.90;99.90;;;;;;5001868;28;20064;-71
2023/04/28 11:21:48;;;;;;;6.70;3.00;;;14.90;99.90;;;;;;5007996;28;20073;-72
2023/04/28 11:24:14;;;;;;;4.88;2.83;;;14.90;99.90;;;;;;5000594;28;20038;-70
2023/04/28 11:26:41;;;;;;;7.28;3.10;;;15.00;99.90;;;;;;4996233;28;20034;-72
2023/04/28 11:29:07;;;;;;;5.88;2.97;;;14.90;99.90;;;;;;5004583;28;20035;-71
2023/04/28 11:31:33;;;;;;;4.88;3.17;;;14.90;99.90;;;;;;4985805;28;20483;-72
2023/04/28 11:34:17;;;;;;;6.43;3.15;;;14.90;99.90;;;;;;4990484;28;20125;-72
2023/04/28 11:36:43;;;;;;;6.32;3.35;;;15.00;99.90;;;;;;5000639;28;20034;-72
2023/04/28 11:39:11;;;;;;;6.35;3.17;;;15.00;99.90;;;;;;4988643;28;20061;-73
2023/04/28 11:41:43;;;;;;;6.47;3.33;;;14.90;99.90;;;;;;5003176;28;20492;-73
2023/04/28 11:44:18;;;;;;;7.95;3.50;;;15.00;99.90;;;;;;5012033;28;20044;-77
2023/04/28 11:46:50;;;;;;;5.53;3.60;;;15.10;99.90;;;;;;5007987;28;20540;-78
2023/04/28 11:49:17;;;;;;;4.55;2.97;;;14.90;99.90;;;;;;4992241;28;20038;-77
2023/04/28 11:51:45;;;;;;;4.68;2.90;;;14.90;99.90;;;;;;4987921;28;20034;-74
2023/04/28 11:54:13;;;;;;;5.30;3.30;;;14.80;99.90;;;;;;4993842;28;20490;-77
2023/04/28 11:56:41;;;;;;;4.65;2.83;;;14.80;99.90;;;;;;5020444;28;20036;-76
2023/04/28 11:59:10;;;;;;;5.47;3.38;;;14.80;99.90;;;;;;4993869;28;20036;-78
2023/04/28 12:01:52;;;;;;;7.57;4.07;;;14.80;99.90;;;;;;4989926;28;20034;-79
2023/04/28 12:04:37;;;;;;;8.10;3.92;;;14.80;99.90;;;;;;4997346;28;20379;-77
2023/04/28 12:07:19;;;;;;;6.72;3.60;;;14.80;99.90;;;;;;5016154;28;20022;-79
2023/04/28 12:10:05;;;;;;;5.75;3.13;;;14.90;99.90;;;;;;4995898;28;20045;-77
2023/04/28 12:12:32;;;;;;;7.25;4.35;;;14.90;99.90;;;;;;5013493;28;20497;-77
2023/04/28 12:15:04;;;;;;;7.45;3.63;;;14.90;99.90;;;;;;4998418;28;20042;-78
2023/04/28 12:17:33;;;;;;;14.77;4.68;;;15.00;99.90;;;;;;5022098;28;20406;-78
2023/04/28 12:20:02;;;;;;;13.98;5.93;;;15.00;99.90;;;;;;4998905;28;20054;-76
2023/04/28 12:22:28;;;;;;;11.52;4.63;;;15.10;99.90;;;;;;4998690;28;20041;-77
2023/04/28 12:25:04;;;;;;;6.07;3.53;;;14.90;99.90;;;;;;4999024;28;20148;-77
2023/04/28 12:27:31;;;;;;;7.20;4.30;;;14.90;99.90;;;;;;4999639;28;20157;-77
2023/04/28 12:29:57;;;;;;;8.25;3.85;;;14.90;99.90;;;;;;4999393;28;20057;-76
2023/04/28 12:32:43;;;;;;;5.45;3.00;;;15.00;99.90;;;;;;5010556;28;20476;-77
2023/04/28 12:35:09;;;;;;;7.82;3.88;;;15.00;99.90;;;;;;5000192;28;20026;-77
2023/04/28 12:37:37;;;;;;;3.60;1.85;;;15.20;99.90;;;;;;5000886;28;20097;-77
2023/04/28 12:40:04;;;;;;;7.65;2.58;;;15.30;99.90;;;;;;5002284;28;20041;-76
2023/04/28 12:42:30;;;;;;;6.38;1.92;;;15.30;99.90;;;;;;5004579;28;20033;-77
2023/04/28 12:44:56;;;;;;;4.70;1.50;;;15.30;99.90;;;;;;4998859;28;20343;-77
2023/04/28 12:47:22;;;;;;;6.72;2.28;;;15.40;99.90;;;;;;4995065;28;20068;-78
2023/04/28 12:49:50;;;;;;;3.78;1.50;;;15.50;99.90;;;;;;4996876;28;20053;-77
2023/04/28 12:52:16;;;;;;;2.35;1.30;;;15.50;99.90;;;;;;5018870;28;20025;-76